Time;durP1;ratioP1;P1;durP2;ratioP2;P2;SDS_P1;SDS_P2;PMS_P1;PMS_P2;Temp;Humidity;BMP_temperature;BMP_pressure;BME280_temperature;BME280_humidity;BME280_pressure;Samples;Min_cycle;Max_cycle;Signal;HPM_P1;HPM_P2
2021/11/17 02:26:48;;;;;;;0.40;0.40;;;;;;;;;;5019548;28;20896;-65
2021/11/17 02:29:24;;;;;;;0.50;0.50;;;;;;;;;;5033553;28;20184;-65
2021/11/17 02:31:56;;;;;;;0.50;0.50;;;;;;;;;;5033237;28;20498;-65
2021/11/17 02:34:25;;;;;;;0.50;0.50;;;;;;;;;;5033342;28;20207;-65
2021/11/17 02:36:54;;;;;;;0.50;0.50;;;;;;;;;;5033410;28;20176;-65
2021/11/17 02:39:19;;;;;;;0.40;0.40;;;;;;;;;;5033247;28;20180;-65
2021/11/17 02:41:53;;;;;;;0.40;0.40;;;;;;;;;;5033075;28;20178;-65
2021/11/17 02:44:26;;;;;;;0.50;0.50;;;;;;;;;;5031893;28;20505;-65
2021/11/17 02:46:52;;;;;;;0.40;0.40;;;;;;;;;;5032719;28;20209;-65
2021/11/17 02:49:33;;;;;;;0.40;0.40;;;;;;;;;;5032067;28;20179;-65
2021/11/17 02:51:59;;;;;;;0.40;0.40;;;;;;;;;;5033162;28;20497;-65
2021/11/17 02:54:33;;;;;;;0.40;0.40;;;;;;;;;;5033306;28;20238;-65
2021/11/17 02:57:09;;;;;;;0.50;0.50;;;;;;;;;;5033233;28;20418;-65
2021/11/17 02:59:35;;;;;;;0.50;0.50;;;;;;;;;;5033216;28;20186;-65
2021/11/17 03:02:01;;;;;;;0.40;0.40;;;;;;;;;;5032638;28;20171;-65
2021/11/17 03:04:29;;;;;;;0.50;0.50;;;;;;;;;;5032791;28;20431;-65
2021/11/17 03:06:55;;;;;;;0.40;0.40;;;;;;;;;;5032857;28;20929;-65
2021/11/17 03:09:39;;;;;;;0.50;0.50;;;;;;;;;;5032740;28;20187;-65
2021/11/17 03:12:26;;;;;;;0.40;0.40;;;;;;;;;;5032399;28;20407;-65
2021/11/17 03:14:55;;;;;;;0.50;0.50;;;;;;;;;;5032830;28;20683;-65
2021/11/17 03:17:27;;;;;;;0.40;0.40;;;;;;;;;;5031310;28;20180;-65
2021/11/17 03:19:55;;;;;;;0.40;0.40;;;;;;;;;;5032617;28;20751;-65
2021/11/17 03:22:35;;;;;;;0.50;0.50;;;;;;;;;;5032278;28;20227;-65
2021/11/17 03:25:04;;;;;;;0.40;0.40;;;;;;;;;;5031133;28;20706;-65
2021/11/17 03:27:40;;;;;;;0.40;0.40;;;;;;;;;;5032391;28;20184;-65
2021/11/17 03:30:19;;;;;;;0.50;0.50;;;;;;;;;;5032319;28;20179;-65
2021/11/17 03:33:04;;;;;;;0.50;0.50;;;;;;;;;;5032333;28;20217;-65
2021/11/17 03:35:39;;;;;;;0.50;0.50;;;;;;;;;;5032115;28;20582;-65
2021/11/17 03:38:11;;;;;;;0.40;0.40;;;;;;;;;;5031166;28;20183;-65
2021/11/17 03:40:56;;;;;;;0.40;0.40;;;;;;;;;;5031897;28;20176;-65
2021/11/17 03:43:44;;;;;;;0.40;0.40;;;;;;;;;;5031924;28;20179;-65
2021/11/17 03:46:17;;;;;;;0.50;0.50;;;;;;;;;;5032033;28;20214;-65
2021/11/17 03:48:43;;;;;;;0.40;0.40;;;;;;;;;;5032085;28;20602;-65
2021/11/17 03:51:09;;;;;;;0.50;0.50;;;;;;;;;;5031390;28;20246;-65
2021/11/17 03:53:35;;;;;;;0.50;0.50;;;;;;;;;;5031717;28;20404;-65
2021/11/17 03:56:07;;;;;;;0.40;0.40;;;;;;;;;;5032043;28;20839;-65
2021/11/17 03:58:43;;;;;;;0.40;0.40;;;;;;;;;;5032079;28;20417;-65
2021/11/17 04:01:09;;;;;;;0.40;0.40;;;;;;;;;;5031895;28;20183;-65
2021/11/17 04:03:40;;;;;;;0.47;0.47;;;;;;;;;;5031920;28;20176;-65
2021/11/17 04:06:23;;;;;;;0.50;0.50;;;;;;;;;;5031670;28;20513;-65
2021/11/17 04:08:55;;;;;;;0.40;0.40;;;;;;;;;;5030597;28;20175;-65
2021/11/17 04:11:27;;;;;;;0.50;0.50;;;;;;;;;;5031453;28;20173;-65
2021/11/17 04:14:28;;;;;;;0.50;0.50;;;;;;;;;;5031382;28;20261;-65
2021/11/17 04:17:13;;;;;;;0.40;0.40;;;;;;;;;;4989957;28;20182;-65
2021/11/17 04:19:48;;;;;;;0.50;0.50;;;;;;;;;;5028410;28;20195;-65
2021/11/17 04:22:22;;;;;;;0.50;0.50;;;;;;;;;;5031445;28;20643;-65
2021/11/17 04:25:07;;;;;;;0.40;0.40;;;;;;;;;;5013902;28;20209;-65
2021/11/17 04:27:41;;;;;;;0.40;0.40;;;;;;;;;;5031454;28;20178;-65
2021/11/17 04:30:07;;;;;;;0.40;0.40;;;;;;;;;;5031272;28;20205;-65
2021/11/17 04:32:43;;;;;;;0.50;0.50;;;;;;;;;;5031411;28;20171;-65
2021/11/17 04:35:19;;;;;;;0.40;0.40;;;;;;;;;;5031324;28;20478;-65
2021/11/17 04:38:04;;;;;;;0.50;0.50;;;;;;;;;;5031334;28;20214;-65
2021/11/17 04:40:30;;;;;;;0.40;0.40;;;;;;;;;;5031044;28;20207;-65
2021/11/17 04:43:05;;;;;;;0.50;0.50;;;;;;;;;;5031301;28;20202;-65
2021/11/17 04:45:37;;;;;;;0.40;0.40;;;;;;;;;;5029849;28;20561;-65
2021/11/17 04:48:11;;;;;;;0.50;0.50;;;;;;;;;;5031045;28;20172;-65
2021/11/17 04:50:43;;;;;;;0.50;0.50;;;;;;;;;;5031031;28;20639;-64
2021/11/17 04:53:13;;;;;;;0.45;0.45;;;;;;;;;;5031197;28;20187;-65
2021/11/17 04:55:42;;;;;;;0.50;0.50;;;;;;;;;;5031090;28;20220;-64
2021/11/17 04:58:14;;;;;;;0.50;0.50;;;;;;;;;;5031213;28;20185;-65
2021/11/17 05:00:50;;;;;;;0.60;0.60;;;;;;;;;;5030914;28;20172;-65
2021/11/17 05:03:36;;;;;;;0.40;0.40;;;;;;;;;;5033064;28;20175;-65
2021/11/17 05:06:05;;;;;;;0.50;0.50;;;;;;;;;;5035120;28;20215;-65
2021/11/17 05:08:46;;;;;;;0.50;0.50;;;;;;;;;;5034448;28;20547;-65
2021/11/17 05:11:12;;;;;;;0.40;0.40;;;;;;;;;;5033443;28;20175;-65
2021/11/17 05:14:01;;;;;;;0.40;0.40;;;;;;;;;;5034396;28;20255;-65
2021/11/17 05:16:43;;;;;;;0.50;0.50;;;;;;;;;;5015882;28;20188;-65
2021/11/17 05:19:29;;;;;;;0.50;0.50;;;;;;;;;;5033962;28;20173;-65
2021/11/17 05:22:14;;;;;;;0.40;0.40;;;;;;;;;;5013621;28;20198;-65
2021/11/17 05:24:52;;;;;;;0.40;0.40;;;;;;;;;;5034673;28;20199;-65
2021/11/17 05:27:17;;;;;;;0.40;0.40;;;;;;;;;;5034741;28;20206;-65
2021/11/17 05:29:56;;;;;;;0.40;0.40;;;;;;;;;;5034696;28;20811;-65
2021/11/17 05:32:38;;;;;;;0.50;0.50;;;;;;;;;;5033088;28;20780;-65
2021/11/17 05:35:23;;;;;;;0.50;0.50;;;;;;;;;;5033239;28;20195;-65
2021/11/17 05:37:52;;;;;;;0.40;0.40;;;;;;;;;;5013247;28;20659;-65
2021/11/17 05:40:20;;;;;;;0.40;0.40;;;;;;;;;;5014171;28;20176;-65
2021/11/17 05:43:05;;;;;;;0.50;0.50;;;;;;;;;;5014549;28;20180;-65
2021/11/17 05:45:34;;;;;;;0.50;0.50;;;;;;;;;;5013128;28;20726;-65
2021/11/17 05:48:19;;;;;;;0.40;0.40;;;;;;;;;;5014477;28;20516;-65
2021/11/17 05:50:52;;;;;;;0.50;0.50;;;;;;;;;;5014335;28;20188;-65
2021/11/17 05:53:50;;;;;;;0.60;0.60;;;;;;;;;;5014410;28;20177;-65
2021/11/17 05:56:36;;;;;;;0.40;0.40;;;;;;;;;;5018837;22;20289;-66
2021/11/17 05:59:05;;;;;;;0.50;0.50;;;;;;;;;;5015052;28;20184;-64
2021/11/17 06:01:38;;;;;;;0.40;0.40;;;;;;;;;;5014744;28;20593;-62
2021/11/17 06:04:05;;;;;;;0.50;0.50;;;;;;;;;;5014430;28;20271;-63
2021/11/17 06:06:36;;;;;;;0.40;0.40;;;;;;;;;;5014089;28;20208;-64
2021/11/17 06:09:03;;;;;;;0.50;0.50;;;;;;;;;;5014160;28;20200;-62
2021/11/17 06:11:31;;;;;;;0.40;0.40;;;;;;;;;;5013937;28;20246;-65
2021/11/17 06:13:58;;;;;;;0.50;0.50;;;;;;;;;;5013700;28;20176;-63
2021/11/17 06:16:25;;;;;;;0.40;0.40;;;;;;;;;;5014150;28;20606;-63
2021/11/17 06:18:53;;;;;;;0.40;0.40;;;;;;;;;;5013954;28;20544;-64
2021/11/17 06:21:19;;;;;;;0.50;0.50;;;;;;;;;;5013763;28;20196;-63
2021/11/17 06:23:48;;;;;;;0.50;0.50;;;;;;;;;;5013856;28;20180;-63
2021/11/17 06:26:19;;;;;;;0.50;0.50;;;;;;;;;;5013597;28;20473;-63
2021/11/17 06:28:48;;;;;;;0.40;0.40;;;;;;;;;;5013901;28;20168;-64
2021/11/17 06:31:14;;;;;;;0.60;0.60;;;;;;;;;;5013626;28;20174;-64
2021/11/17 06:33:40;;;;;;;0.40;0.40;;;;;;;;;;5013799;28;20545;-66
2021/11/17 06:36:06;;;;;;;0.50;0.50;;;;;;;;;;5013556;28;20200;-65
2021/11/17 06:38:32;;;;;;;0.40;0.40;;;;;;;;;;5013589;28;20419;-64
2021/11/17 06:40:58;;;;;;;0.50;0.50;;;;;;;;;;5013651;28;20180;-64
2021/11/17 06:43:24;;;;;;;0.50;0.50;;;;;;;;;;5013655;28;20469;-65
2021/11/17 06:45:52;;;;;;;0.50;0.50;;;;;;;;;;5013421;28;20451;-65
2021/11/17 06:48:19;;;;;;;0.50;0.50;;;;;;;;;;5013598;28;20223;-65
2021/11/17 06:50:46;;;;;;;0.50;0.50;;;;;;;;;;5013094;28;20231;-65
2021/11/17 06:53:12;;;;;;;0.50;0.50;;;;;;;;;;5013478;28;20214;-65
2021/11/17 06:55:38;;;;;;;0.50;0.50;;;;;;;;;;5013128;28;20216;-65
2021/11/17 06:58:05;;;;;;;0.50;0.50;;;;;;;;;;5013477;28;20186;-64
2021/11/17 07:00:32;;;;;;;0.40;0.40;;;;;;;;;;5013081;28;20684;-65
2021/11/17 07:02:58;;;;;;;0.50;0.50;;;;;;;;;;5013478;28;20611;-66
2021/11/17 07:05:24;;;;;;;0.40;0.40;;;;;;;;;;5013158;28;20707;-65
2021/11/17 07:07:54;;;;;;;0.40;0.40;;;;;;;;;;5013296;28;20176;-65
2021/11/17 07:10:20;;;;;;;0.50;0.50;;;;;;;;;;5013010;28;20897;-66
2021/11/17 07:12:47;;;;;;;0.50;0.50;;;;;;;;;;5013284;28;20172;-65
2021/11/17 07:15:13;;;;;;;0.40;0.40;;;;;;;;;;5013093;28;20196;-65
2021/11/17 07:17:40;;;;;;;0.70;0.70;;;;;;;;;;5012939;28;20649;-66
2021/11/17 07:20:07;;;;;;;0.50;0.50;;;;;;;;;;5012476;28;20257;-64
2021/11/17 07:22:33;;;;;;;0.40;0.40;;;;;;;;;;5012416;28;20188;-66
2021/11/17 07:24:59;;;;;;;0.40;0.40;;;;;;;;;;5011771;28;20223;-66
2021/11/17 07:27:24;;;;;;;0.50;0.50;;;;;;;;;;5012395;28;20180;-65
2021/11/17 07:29:55;;;;;;;0.50;0.50;;;;;;;;;;5012681;28;20429;-65
2021/11/17 07:32:22;;;;;;;0.60;0.60;;;;;;;;;;5012613;28;20420;-66
2021/11/17 07:34:48;;;;;;;0.40;0.40;;;;;;;;;;5011744;28;20680;-65
2021/11/17 07:37:14;;;;;;;0.40;0.40;;;;;;;;;;5012873;28;20190;-65
2021/11/17 07:39:40;;;;;;;0.50;0.50;;;;;;;;;;5013078;28;20181;-65
2021/11/17 07:42:06;;;;;;;0.50;0.50;;;;;;;;;;5012881;28;20436;-65
2021/11/17 07:44:33;;;;;;;0.50;0.50;;;;;;;;;;5009054;28;20199;-66
2021/11/17 07:46:59;;;;;;;0.40;0.40;;;;;;;;;;5015102;28;20208;-65
2021/11/17 07:49:27;;;;;;;0.50;0.50;;;;;;;;;;5016606;28;20471;-65
2021/11/17 07:51:55;;;;;;;0.50;0.50;;;;;;;;;;5012233;28;20200;-65
2021/11/17 07:54:21;;;;;;;0.60;0.60;;;;;;;;;;5011057;28;20274;-64
2021/11/17 07:56:48;;;;;;;0.50;0.50;;;;;;;;;;5012544;28;20188;-65
2021/11/17 07:59:15;;;;;;;0.50;0.50;;;;;;;;;;5010613;28;20184;-65
2021/11/17 08:01:45;;;;;;;0.50;0.50;;;;;;;;;;5010217;28;20188;-63
2021/11/17 08:04:14;;;;;;;0.50;0.50;;;;;;;;;;5029079;28;20190;-66
2021/11/17 08:06:40;;;;;;;0.50;0.50;;;;;;;;;;5031097;28;20689;-65
2021/11/17 08:09:07;;;;;;;0.50;0.50;;;;;;;;;;5030878;28;20257;-65
2021/11/17 08:11:33;;;;;;;0.50;0.50;;;;;;;;;;5030266;28;20418;-65
2021/11/17 08:13:59;;;;;;;0.50;0.50;;;;;;;;;;5031235;28;20249;-66
2021/11/17 08:16:25;;;;;;;0.53;0.53;;;;;;;;;;5031724;28;20278;-65
2021/11/17 08:18:51;;;;;;;0.50;0.50;;;;;;;;;;5031910;28;20417;-65
2021/11/17 08:21:17;;;;;;;0.40;0.40;;;;;;;;;;5030607;28;20177;-66
2021/11/17 08:23:44;;;;;;;0.45;0.45;;;;;;;;;;5032021;28;20175;-65
2021/11/17 08:26:10;;;;;;;0.50;0.50;;;;;;;;;;5031579;28;20223;-66
2021/11/17 08:28:36;;;;;;;0.50;0.50;;;;;;;;;;5031788;28;20246;-65
2021/11/17 08:31:03;;;;;;;0.50;0.50;;;;;;;;;;5031480;28;20270;-65
2021/11/17 08:33:29;;;;;;;0.50;0.50;;;;;;;;;;5031236;28;20787;-65
2021/11/17 08:35:57;;;;;;;0.50;0.50;;;;;;;;;;5031699;28;20198;-63
2021/11/17 08:38:23;;;;;;;0.50;0.50;;;;;;;;;;5031895;28;20415;-64
2021/11/17 08:40:52;;;;;;;0.40;0.40;;;;;;;;;;5030328;28;20183;-64
2021/11/17 08:43:19;;;;;;;0.40;0.40;;;;;;;;;;5031690;28;20171;-65
2021/11/17 08:45:45;;;;;;;0.40;0.40;;;;;;;;;;5029743;28;20211;-64
2021/11/17 08:48:12;;;;;;;0.50;0.50;;;;;;;;;;5030317;28;20179;-65
2021/11/17 08:50:38;;;;;;;0.40;0.40;;;;;;;;;;5031127;28;20182;-65
2021/11/17 08:53:05;;;;;;;0.60;0.60;;;;;;;;;;5031488;28;20702;-64
2021/11/17 08:55:31;;;;;;;0.40;0.40;;;;;;;;;;5031247;28;20678;-65
2021/11/17 08:57:58;;;;;;;0.50;0.50;;;;;;;;;;5031994;28;20176;-66
2021/11/17 09:00:25;;;;;;;0.50;0.50;;;;;;;;;;5031318;28;20271;-66
2021/11/17 09:02:51;;;;;;;0.50;0.50;;;;;;;;;;5031447;28;20520;-65
2021/11/17 09:05:18;;;;;;;0.50;0.50;;;;;;;;;;5031399;28;20199;-66
2021/11/17 09:07:45;;;;;;;0.50;0.50;;;;;;;;;;5031595;28;20172;-62
2021/11/17 09:10:13;;;;;;;0.50;0.50;;;;;;;;;;5024403;28;20188;-65
2021/11/17 09:12:39;;;;;;;0.60;0.60;;;;;;;;;;5010131;28;20255;-64
2021/11/17 09:15:06;;;;;;;0.50;0.50;;;;;;;;;;5011462;28;20282;-64
2021/11/17 09:17:32;;;;;;;0.50;0.50;;;;;;;;;;5011508;28;20466;-64
2021/11/17 09:19:58;;;;;;;0.50;0.50;;;;;;;;;;5010228;28;20226;-60
2021/11/17 09:22:25;;;;;;;0.50;0.50;;;;;;;;;;5010257;28;20191;-64
2021/11/17 09:24:51;;;;;;;0.50;0.50;;;;;;;;;;5011493;28;20915;-64
2021/11/17 09:27:18;;;;;;;0.40;0.40;;;;;;;;;;5008193;28;20264;-65
2021/11/17 09:29:44;;;;;;;0.50;0.50;;;;;;;;;;5011120;28;20416;-63
2021/11/17 09:32:11;;;;;;;0.45;0.45;;;;;;;;;;5011183;28;20174;-65
2021/11/17 09:34:38;;;;;;;0.50;0.50;;;;;;;;;;5011498;28;20196;-66
2021/11/17 09:37:07;;;;;;;0.50;0.50;;;;;;;;;;5011459;28;20653;-65
2021/11/17 09:39:33;;;;;;;0.40;0.40;;;;;;;;;;5011201;28;20255;-64
2021/11/17 09:42:00;;;;;;;0.50;0.50;;;;;;;;;;5010813;28;20674;-64
2021/11/17 09:44:32;;;;;;;0.50;0.50;;;;;;;;;;5011366;28;20181;-65
2021/11/17 09:47:00;;;;;;;0.50;0.50;;;;;;;;;;5011244;28;20201;-65
2021/11/17 09:49:36;;;;;;;0.50;0.50;;;;;;;;;;5014167;28;20652;-65
2021/11/17 09:52:04;;;;;;;0.50;0.50;;;;;;;;;;5013807;28;20180;-66
2021/11/17 09:54:40;;;;;;;0.40;0.40;;;;;;;;;;5014344;28;20567;-63
2021/11/17 09:57:14;;;;;;;0.50;0.50;;;;;;;;;;5014601;28;20182;-65
2021/11/17 09:59:43;;;;;;;0.40;0.40;;;;;;;;;;5012277;28;20180;-65
2021/11/17 10:02:11;;;;;;;0.50;0.50;;;;;;;;;;5013313;28;20183;-65
2021/11/17 10:04:40;;;;;;;0.40;0.40;;;;;;;;;;5013712;28;20628;-65
2021/11/17 10:10:08;;;;;;;0.50;0.50;;;;;;;;;;5014645;28;20187;-63
2021/11/17 10:12:57;;;;;;;0.40;0.40;;;;;;;;;;5014341;28;20585;-64
2021/11/17 10:15:25;;;;;;;0.40;0.40;;;;;;;;;;5013465;28;20215;-65
2021/11/17 10:17:54;;;;;;;0.40;0.40;;;;;;;;;;5014029;28;20256;-64
2021/11/17 10:20:27;;;;;;;0.50;0.50;;;;;;;;;;5013645;28;20183;-65
2021/11/17 10:23:05;;;;;;;0.50;0.50;;;;;;;;;;5013945;28;20594;-65
2021/11/17 10:25:42;;;;;;;0.50;0.50;;;;;;;;;;5013231;28;20204;-65
2021/11/17 10:28:08;;;;;;;0.40;0.40;;;;;;;;;;5013576;28;20212;-65
2021/11/17 10:30:39;;;;;;;0.50;0.50;;;;;;;;;;5013545;28;20192;-64
2021/11/17 10:33:11;;;;;;;0.40;0.40;;;;;;;;;;5013756;28;20184;-64
2021/11/17 10:35:54;;;;;;;0.50;0.50;;;;;;;;;;5013464;28;20669;-63
2021/11/17 10:38:26;;;;;;;0.50;0.50;;;;;;;;;;5013856;28;20556;-64
2021/11/17 10:40:53;;;;;;;0.50;0.50;;;;;;;;;;5012013;28;20250;-63
2021/11/17 10:43:36;;;;;;;0.60;0.60;;;;;;;;;;5013201;28;20185;-62
2021/11/17 10:46:05;;;;;;;0.50;0.50;;;;;;;;;;5013452;28;20205;-63
2021/11/17 10:48:36;;;;;;;0.43;0.43;;;;;;;;;;5013547;28;20175;-63
2021/11/17 10:51:17;;;;;;;0.60;0.60;;;;;;;;;;5012804;28;20172;-65
2021/11/17 10:53:47;;;;;;;0.50;0.50;;;;;;;;;;5014515;28;20173;-65
2021/11/17 10:56:13;;;;;;;0.50;0.50;;;;;;;;;;5014839;28;20270;-65
2021/11/17 10:58:41;;;;;;;0.50;0.50;;;;;;;;;;5013362;28;20542;-64
2021/11/17 11:01:15;;;;;;;0.50;0.50;;;;;;;;;;5010585;28;20172;-65
2021/11/17 11:03:46;;;;;;;0.50;0.50;;;;;;;;;;5013634;28;20180;-65
2021/11/17 11:06:16;;;;;;;0.50;0.50;;;;;;;;;;5012866;28;20231;-64
2021/11/17 11:08:45;;;;;;;0.50;0.50;;;;;;;;;;5013217;28;20234;-65
2021/11/17 11:11:11;;;;;;;0.50;0.50;;;;;;;;;;5012827;28;20185;-65
2021/11/17 11:13:43;;;;;;;0.50;0.50;;;;;;;;;;5012891;28;20181;-64
2021/11/17 11:16:11;;;;;;;0.50;0.50;;;;;;;;;;5031364;28;20207;-64
2021/11/17 11:19:12;;;;;;;0.50;0.50;;;;;;;;;;5032219;28;20214;-66
2021/11/17 11:21:59;;;;;;;0.50;0.50;;;;;;;;;;5031354;28;20214;-65
2021/11/17 11:24:26;;;;;;;0.40;0.40;;;;;;;;;;5018282;28;20187;-63
2021/11/17 11:27:00;;;;;;;0.50;0.50;;;;;;;;;;5032463;28;20266;-65
2021/11/17 11:29:29;;;;;;;0.50;0.50;;;;;;;;;;5031010;28;20183;-65
2021/11/17 11:31:57;;;;;;;0.50;0.50;;;;;;;;;;5031889;28;20211;-65
2021/11/17 11:34:34;;;;;;;0.50;0.50;;;;;;;;;;5031852;28;20595;-64
2021/11/17 11:37:01;;;;;;;0.40;0.40;;;;;;;;;;5032298;28;20234;-66
2021/11/17 11:39:32;;;;;;;0.50;0.50;;;;;;;;;;5032205;28;20180;-64
2021/11/17 11:42:15;;;;;;;0.60;0.60;;;;;;;;;;5032228;28;20179;-65
2021/11/17 11:44:44;;;;;;;0.50;0.50;;;;;;;;;;5031645;28;20201;-65
2021/11/17 11:47:10;;;;;;;0.50;0.50;;;;;;;;;;5031729;28;20277;-65
2021/11/17 11:49:44;;;;;;;0.50;0.50;;;;;;;;;;5032207;28;20172;-66
2021/11/17 11:52:19;;;;;;;0.50;0.50;;;;;;;;;;5031868;28;20460;-65
2021/11/17 11:57:32;;;;;;;0.50;0.50;;;;;;;;;;5060757;22;20342;-63
2021/11/17 12:00:18;;;;;;;0.50;0.50;;;;;;;;;;5051692;28;20186;-63
2021/11/17 12:02:57;;;;;;;0.50;0.50;;;;;;;;;;5051695;28;20372;-64
2021/11/17 12:05:29;;;;;;;0.50;0.50;;;;;;;;;;5051522;28;20706;-64
2021/11/17 12:07:57;;;;;;;0.50;0.50;;;;;;;;;;5050714;28;20182;-64
2021/11/17 12:10:28;;;;;;;0.50;0.50;;;;;;;;;;5050829;28;20585;-64
2021/11/17 12:12:54;;;;;;;0.40;0.40;;;;;;;;;;5051517;28;20171;-64
2021/11/17 12:15:33;;;;;;;0.40;0.40;;;;;;;;;;5051438;28;20198;-64
2021/11/17 12:18:09;;;;;;;0.50;0.50;;;;;;;;;;5051384;28;20209;-64
2021/11/17 12:20:37;;;;;;;0.50;0.50;;;;;;;;;;5050562;28;20178;-64
2021/11/17 12:23:13;;;;;;;0.50;0.50;;;;;;;;;;5051514;28;20645;-64
2021/11/17 12:25:39;;;;;;;0.60;0.60;;;;;;;;;;5051245;28;20672;-64
2021/11/17 12:28:14;;;;;;;0.50;0.50;;;;;;;;;;5051381;28;20181;-64
2021/11/17 12:30:42;;;;;;;0.60;0.60;;;;;;;;;;5050713;28;20181;-63
2021/11/17 12:33:20;;;;;;;0.50;0.50;;;;;;;;;;5051045;28;20171;-63
2021/11/17 12:35:48;;;;;;;0.60;0.60;;;;;;;;;;5051223;28;20233;-64
2021/11/17 12:38:15;;;;;;;0.50;0.50;;;;;;;;;;5051235;28;20261;-64
2021/11/17 12:40:45;;;;;;;0.50;0.50;;;;;;;;;;5051060;28;20175;-64
2021/11/17 12:43:30;;;;;;;0.50;0.50;;;;;;;;;;5051629;28;20174;-64
2021/11/17 12:46:08;;;;;;;0.50;0.50;;;;;;;;;;5051106;28;20613;-64
2021/11/17 12:48:47;;;;;;;0.50;0.50;;;;;;;;;;5049890;28;20185;-64
2021/11/17 12:51:19;;;;;;;0.50;0.50;;;;;;;;;;5050849;28;20183;-63
2021/11/17 12:53:52;;;;;;;0.40;0.40;;;;;;;;;;5051060;28;20171;-63
2021/11/17 12:56:23;;;;;;;0.40;0.40;;;;;;;;;;5050955;28;20214;-64
2021/11/17 12:58:52;;;;;;;0.50;0.50;;;;;;;;;;5051045;28;20198;-64
2021/11/17 13:01:32;;;;;;;0.50;0.50;;;;;;;;;;5050643;28;20183;-64
2021/11/17 13:04:03;;;;;;;0.45;0.45;;;;;;;;;;5050956;28;20500;-64
2021/11/17 13:06:33;;;;;;;0.50;0.50;;;;;;;;;;5050751;28;20250;-64
2021/11/17 13:09:07;;;;;;;0.50;0.50;;;;;;;;;;5051024;28;20262;-64
2021/11/17 13:11:33;;;;;;;0.50;0.50;;;;;;;;;;5050603;28;20203;-64
2021/11/17 13:13:59;;;;;;;0.50;0.50;;;;;;;;;;5050930;28;20164;-64
2021/11/17 13:16:37;;;;;;;0.50;0.50;;;;;;;;;;5050771;28;20229;-64
2021/11/17 13:19:20;;;;;;;0.40;0.40;;;;;;;;;;5050798;28;20481;-64
2021/11/17 13:21:57;;;;;;;0.40;0.40;;;;;;;;;;5050637;28;20182;-64
2021/11/17 13:24:23;;;;;;;0.40;0.40;;;;;;;;;;5053969;28;20185;-64
2021/11/17 13:27:07;;;;;;;0.40;0.40;;;;;;;;;;5053051;28;20585;-64
2021/11/17 13:29:52;;;;;;;0.50;0.50;;;;;;;;;;5053083;28;20414;-64
2021/11/17 13:32:18;;;;;;;0.50;0.50;;;;;;;;;;5054354;28;20570;-64
2021/11/17 13:34:52;;;;;;;0.40;0.40;;;;;;;;;;5054426;28;20707;-64
2021/11/17 13:37:34;;;;;;;0.50;0.50;;;;;;;;;;5054437;28;20243;-64
2021/11/17 13:40:11;;;;;;;0.40;0.40;;;;;;;;;;5054502;28;20218;-64
2021/11/17 13:42:38;;;;;;;0.60;0.60;;;;;;;;;;5054204;28;20265;-64
2021/11/17 13:45:10;;;;;;;0.50;0.50;;;;;;;;;;5054017;28;20225;-64
2021/11/17 13:47:36;;;;;;;0.50;0.50;;;;;;;;;;5054125;28;20202;-64
2021/11/17 13:50:05;;;;;;;0.50;0.50;;;;;;;;;;5054077;28;20175;-64
2021/11/17 13:52:32;;;;;;;0.50;0.50;;;;;;;;;;5054037;28;20416;-64
2021/11/17 13:54:59;;;;;;;0.55;0.55;;;;;;;;;;5053778;28;20178;-64
2021/11/17 13:57:25;;;;;;;0.50;0.50;;;;;;;;;;5054000;28;20170;-64
2021/11/17 13:59:51;;;;;;;0.50;0.50;;;;;;;;;;5054020;28;20553;-64
2021/11/17 14:02:18;;;;;;;0.50;0.50;;;;;;;;;;5053466;28;20429;-63
2021/11/17 14:04:44;;;;;;;0.50;0.50;;;;;;;;;;5053790;28;20634;-64
2021/11/17 14:07:14;;;;;;;0.50;0.50;;;;;;;;;;5053835;28;20225;-64
2021/11/17 14:09:41;;;;;;;0.40;0.40;;;;;;;;;;5053822;28;20585;-64
2021/11/17 14:12:07;;;;;;;0.50;0.50;;;;;;;;;;5053522;28;20179;-64
2021/11/17 14:14:33;;;;;;;0.50;0.50;;;;;;;;;;5048860;28;20326;-64
2021/11/17 14:16:59;;;;;;;0.50;0.50;;;;;;;;;;5034170;28;20338;-66
2021/11/17 14:19:25;;;;;;;0.50;0.50;;;;;;;;;;5034286;28;20263;-64
2021/11/17 14:21:51;;;;;;;0.50;0.50;;;;;;;;;;5032479;28;20426;-64
2021/11/17 14:24:17;;;;;;;0.40;0.40;;;;;;;;;;5032213;28;20647;-64
2021/11/17 14:26:45;;;;;;;0.40;0.40;;;;;;;;;;5033443;28;20207;-64
2021/11/17 14:29:13;;;;;;;0.50;0.50;;;;;;;;;;5033472;28;20757;-65
2021/11/17 14:31:42;;;;;;;0.50;0.50;;;;;;;;;;5033293;28;20176;-64
2021/11/17 14:34:09;;;;;;;0.50;0.50;;;;;;;;;;5032027;28;20171;-64
2021/11/17 14:36:38;;;;;;;0.40;0.40;;;;;;;;;;5033291;28;20196;-64
2021/11/17 14:39:06;;;;;;;0.40;0.40;;;;;;;;;;5032998;28;20672;-64
2021/11/17 14:41:33;;;;;;;0.50;0.50;;;;;;;;;;5032982;28;20322;-65
2021/11/17 14:43:59;;;;;;;0.50;0.50;;;;;;;;;;5033127;28;20183;-64
2021/11/17 14:46:25;;;;;;;0.50;0.50;;;;;;;;;;5032970;28;20230;-64
2021/11/17 14:48:51;;;;;;;0.50;0.50;;;;;;;;;;5033178;28;20179;-64
2021/11/17 14:51:17;;;;;;;0.50;0.50;;;;;;;;;;5032991;28;20186;-64
2021/11/17 14:53:46;;;;;;;0.50;0.50;;;;;;;;;;5033101;28;20646;-65
2021/11/17 14:56:13;;;;;;;0.40;0.40;;;;;;;;;;5032784;28;20219;-64
2021/11/17 14:58:39;;;;;;;0.50;0.50;;;;;;;;;;5031719;28;20250;-64
2021/11/17 15:01:17;;;;;;;0.40;0.40;;;;;;;;;;5032826;28;20176;-64
2021/11/17 15:03:44;;;;;;;0.40;0.40;;;;;;;;;;5033001;28;20263;-64
2021/11/17 15:06:10;;;;;;;0.40;0.40;;;;;;;;;;5031969;28;20266;-64
2021/11/17 15:08:36;;;;;;;0.47;0.47;;;;;;;;;;5032385;28;20176;-64
2021/11/17 15:11:02;;;;;;;0.40;0.40;;;;;;;;;;5032266;28;20205;-64
2021/11/17 15:13:28;;;;;;;0.50;0.50;;;;;;;;;;5035406;28;20416;-64
2021/11/17 15:15:56;;;;;;;0.50;0.50;;;;;;;;;;5052552;28;20471;-64
2021/11/17 15:18:23;;;;;;;0.40;0.40;;;;;;;;;;5052514;28;20471;-64
2021/11/17 15:20:49;;;;;;;0.50;0.50;;;;;;;;;;5052182;28;20175;-64
2021/11/17 15:23:16;;;;;;;0.50;0.50;;;;;;;;;;5052118;28;20605;-64
2021/11/17 15:25:43;;;;;;;0.50;0.50;;;;;;;;;;5051894;28;20214;-64
2021/11/17 15:28:18;;;;;;;0.50;0.50;;;;;;;;;;5052428;28;20179;-64
2021/11/17 15:31:04;;;;;;;0.50;0.50;;;;;;;;;;5052061;28;20170;-64
2021/11/17 15:33:31;;;;;;;0.40;0.40;;;;;;;;;;5051494;28;20187;-65
2021/11/17 15:35:57;;;;;;;0.40;0.40;;;;;;;;;;5052208;28;20745;-65
2021/11/17 15:38:23;;;;;;;0.40;0.40;;;;;;;;;;5032881;28;20233;-65
2021/11/17 15:40:51;;;;;;;0.40;0.40;;;;;;;;;;5031985;28;20425;-65
2021/11/17 15:43:18;;;;;;;0.50;0.50;;;;;;;;;;5032034;28;20199;-65
2021/11/17 15:45:44;;;;;;;0.50;0.50;;;;;;;;;;5031002;28;20215;-65
2021/11/17 15:48:10;;;;;;;0.50;0.50;;;;;;;;;;5032257;28;20551;-64
2021/11/17 15:50:42;;;;;;;0.50;0.50;;;;;;;;;;5031689;28;20173;-64
2021/11/17 15:53:08;;;;;;;0.50;0.50;;;;;;;;;;5032099;28;20180;-65
2021/11/17 15:55:34;;;;;;;0.40;0.40;;;;;;;;;;5031285;28;20211;-65
2021/11/17 15:58:01;;;;;;;0.50;0.50;;;;;;;;;;5032018;28;20646;-65
2021/11/17 16:00:27;;;;;;;0.50;0.50;;;;;;;;;;5031772;28;20204;-65
2021/11/17 16:02:54;;;;;;;0.40;0.40;;;;;;;;;;5031588;28;20183;-65
2021/11/17 16:05:21;;;;;;;0.50;0.50;;;;;;;;;;5031514;28;20798;-65
2021/11/17 16:07:47;;;;;;;0.50;0.50;;;;;;;;;;5031292;28;20647;-65
2021/11/17 16:10:14;;;;;;;0.50;0.50;;;;;;;;;;5031523;28;20171;-65
2021/11/17 16:12:41;;;;;;;0.50;0.50;;;;;;;;;;5031259;28;20508;-65
2021/11/17 16:15:09;;;;;;;0.40;0.40;;;;;;;;;;5031290;28;20254;-65
2021/11/17 16:17:38;;;;;;;0.60;0.60;;;;;;;;;;5030880;28;20195;-65
2021/11/17 16:20:05;;;;;;;0.40;0.40;;;;;;;;;;5031042;28;20175;-64
2021/11/17 16:22:35;;;;;;;0.50;0.50;;;;;;;;;;5031364;28;20209;-65
2021/11/17 16:27:50;;;;;;;0.43;0.43;;;;;;;;;;5031664;28;20241;-65
2021/11/17 16:30:18;;;;;;;0.40;0.40;;;;;;;;;;5030782;28;20181;-65
2021/11/17 16:32:44;;;;;;;0.50;0.50;;;;;;;;;;5031408;28;20179;-65
2021/11/17 16:35:11;;;;;;;0.45;0.45;;;;;;;;;;5031331;28;20223;-65
2021/11/17 16:37:37;;;;;;;0.50;0.50;;;;;;;;;;5031236;28;20164;-65
2021/11/17 16:40:04;;;;;;;0.50;0.50;;;;;;;;;;5030834;28;20179;-65
2021/11/17 16:42:30;;;;;;;0.60;0.60;;;;;;;;;;5031646;28;20686;-65
2021/11/17 16:44:56;;;;;;;0.50;0.50;;;;;;;;;;5031456;28;20187;-65
2021/11/17 16:47:22;;;;;;;0.40;0.40;;;;;;;;;;5031301;28;20459;-65
2021/11/17 16:49:49;;;;;;;0.40;0.40;;;;;;;;;;5031004;28;20175;-65
2021/11/17 16:52:23;;;;;;;0.40;0.40;;;;;;;;;;5029353;28;20923;-65
2021/11/17 16:54:51;;;;;;;0.50;0.50;;;;;;;;;;5031083;28;20183;-65
2021/11/17 16:57:18;;;;;;;0.40;0.40;;;;;;;;;;5032825;28;20206;-65
2021/11/17 16:59:44;;;;;;;0.40;0.40;;;;;;;;;;5035282;28;20171;-65
2021/11/17 17:02:10;;;;;;;0.40;0.40;;;;;;;;;;5034190;28;20639;-65
2021/11/17 17:04:38;;;;;;;0.40;0.40;;;;;;;;;;5035163;28;20222;-65
2021/11/17 17:07:04;;;;;;;0.50;0.50;;;;;;;;;;5034982;28;20201;-65
2021/11/17 17:09:30;;;;;;;0.50;0.50;;;;;;;;;;5035163;28;20185;-65
2021/11/17 17:11:57;;;;;;;0.40;0.40;;;;;;;;;;5034808;28;20585;-65
2021/11/17 17:14:23;;;;;;;0.40;0.40;;;;;;;;;;5034090;28;20180;-65
2021/11/17 17:16:49;;;;;;;0.50;0.50;;;;;;;;;;5034986;28;20700;-65
2021/11/17 17:19:16;;;;;;;0.50;0.50;;;;;;;;;;5035018;28;20862;-65
2021/11/17 17:21:42;;;;;;;0.50;0.50;;;;;;;;;;5034592;28;20267;-65
2021/11/17 17:24:08;;;;;;;0.50;0.50;;;;;;;;;;5034525;28;20599;-65
2021/11/17 17:26:34;;;;;;;0.40;0.40;;;;;;;;;;5034219;28;20473;-65
2021/11/17 17:29:02;;;;;;;0.50;0.50;;;;;;;;;;5034828;28;20454;-65
2021/11/17 17:31:28;;;;;;;0.50;0.50;;;;;;;;;;5034768;28;20661;-65
2021/11/17 17:33:56;;;;;;;0.50;0.50;;;;;;;;;;5034752;28;20639;-65
2021/11/17 17:36:22;;;;;;;0.40;0.40;;;;;;;;;;5034055;28;20191;-64